Time;durP1;ratioP1;P1;durP2;ratioP2;P2;SDS_P1;SDS_P2;PMS_P1;PMS_P2;Temp;Humidity;BMP_temperature;BMP_pressure;BME280_temperature;BME280_humidity;BME280_pressure;Samples;Min_cycle;Max_cycle;Signal;HPM_P1;HPM_P2
2022/06/16 00:01:19;;;;;;;4.90;4.70;;;;;;;-143.83;100.00;62900.06;5027306;28;20546;-61
2022/06/16 00:03:44;;;;;;;5.10;4.90;;;;;;;-143.83;100.00;62900.06;5038593;28;20034;-59
2022/06/16 00:06:10;;;;;;;4.90;4.70;;;;;;;-143.83;100.00;62900.06;5032177;28;20021;-59
2022/06/16 00:08:35;;;;;;;5.00;4.80;;;;;;;-143.83;100.00;62900.06;5032320;28;20164;-59
2022/06/16 00:11:16;;;;;;;4.90;4.70;;;;;;;-143.83;100.00;62900.06;5031180;28;20032;-59
2022/06/16 00:13:42;;;;;;;4.90;4.70;;;;;;;-143.83;100.00;62900.06;5025243;28;20025;-60
2022/06/16 00:16:08;;;;;;;4.88;4.68;;;;;;;-143.83;100.00;62900.06;5024466;28;20032;-59
2022/06/16 00:18:35;;;;;;;5.00;4.80;;;;;;;-143.83;100.00;62900.06;5027567;28;20480;-60
2022/06/16 00:21:00;;;;;;;5.00;4.80;;;;;;;-143.83;100.00;62900.06;5028557;28;20029;-59
2022/06/16 00:23:27;;;;;;;5.10;4.90;;;;;;;-143.83;100.00;62900.06;5031954;28;20028;-58
2022/06/16 00:25:52;;;;;;;5.00;4.80;;;;;;;-143.83;100.00;62900.06;5032337;28;20033;-59
2022/06/16 00:28:18;;;;;;;5.00;4.80;;;;;;;-143.83;100.00;62900.06;5030224;28;20386;-59
2022/06/16 00:30:43;;;;;;;4.90;4.70;;;;;;;-143.83;100.00;62900.06;5032274;28;20026;-59
2022/06/16 00:33:10;;;;;;;5.10;4.90;;;;;;;-143.83;100.00;62900.06;5031836;28;20060;-60
2022/06/16 00:35:35;;;;;;;4.90;4.70;;;;;;;-143.83;100.00;62900.06;5031777;28;20033;-59
2022/06/16 00:38:01;;;;;;;4.93;4.72;;;;;;;-143.83;100.00;62900.06;5028673;28;20129;-60
2022/06/16 00:40:27;;;;;;;5.00;4.80;;;;;;;-143.83;100.00;62900.06;5030982;28;20473;-60
2022/06/16 00:42:52;;;;;;;5.03;4.82;;;;;;;-143.83;100.00;62900.06;5031571;28;20033;-60
2022/06/16 00:45:43;;;;;;;4.95;4.75;;;;;;;-143.83;100.00;62900.06;5027527;28;20025;-60
2022/06/16 00:48:25;;;;;;;5.07;4.88;;;;;;;-143.83;100.00;62900.06;5031855;28;20045;-60
2022/06/16 00:50:58;;;;;;;5.07;4.88;;;;;;;-143.83;100.00;62900.06;5017783;28;20025;-60
2022/06/16 00:53:27;;;;;;;5.00;4.80;;;;;;;-143.83;100.00;62900.06;5026579;28;20037;-60
2022/06/16 00:55:52;;;;;;;5.00;4.80;;;;;;;-143.83;100.00;62900.06;5029900;28;20112;-60
2022/06/16 00:58:21;;;;;;;5.00;4.80;;;;;;;-143.83;100.00;62900.06;5031893;28;20124;-60
2022/06/16 01:00:46;;;;;;;4.97;4.78;;;;;;;-143.83;100.00;62900.06;5027915;28;20440;-60
2022/06/16 01:03:13;;;;;;;5.10;4.90;;;;;;;-143.83;100.00;62900.06;5021635;28;20039;-59
2022/06/16 01:05:39;;;;;;;5.00;4.80;;;;;;;-143.83;100.00;62900.06;5031449;28;20469;-60
2022/06/16 01:08:07;;;;;;;5.00;4.80;;;;;;;-143.83;100.00;62900.06;5029780;28;20029;-59
2022/06/16 01:10:46;;;;;;;5.00;4.80;;;;;;;-143.83;100.00;62900.06;5036590;28;20064;-59
2022/06/16 01:13:43;;;;;;;5.00;4.80;;;;;;;-143.83;100.00;62900.06;5038561;28;20049;-59
2022/06/16 01:16:21;;;;;;;5.05;4.85;;;;;;;-143.83;100.00;62900.06;5029375;28;20451;-59
2022/06/16 01:19:04;;;;;;;5.00;4.80;;;;;;;-143.83;100.00;62900.06;5034444;28;20480;-59
2022/06/16 01:21:53;;;;;;;5.00;4.80;;;;;;;-143.83;100.00;62900.06;5035348;28;20036;-61
2022/06/16 01:24:37;;;;;;;4.90;4.70;;;;;;;-143.83;100.00;62900.06;5032298;28;20076;-60
2022/06/16 01:27:18;;;;;;;4.97;4.78;;;;;;;-143.83;100.00;62900.06;5035017;28;20025;-59
2022/06/16 01:29:53;;;;;;;5.03;4.82;;;;;;;-143.83;100.00;62900.06;5029974;28;20507;-60
2022/06/16 01:32:28;;;;;;;4.97;4.78;;;;;;;-143.83;100.00;62900.06;5034284;28;20032;-60
2022/06/16 01:35:30;;;;;;;4.90;4.70;;;;;;;-143.83;100.00;62900.06;5034394;28;20029;-61
2022/06/16 01:38:09;;;;;;;4.80;4.60;;;;;;;-143.83;100.00;62900.06;5034751;28;20057;-60
2022/06/16 01:40:51;;;;;;;5.20;5.00;;;;;;;-143.83;100.00;62900.06;5035186;28;20018;-60
2022/06/16 01:43:52;;;;;;;4.90;4.70;;;;;;;-143.83;100.00;62900.06;5034307;28;20029;-60
2022/06/16 01:46:31;;;;;;;5.00;4.80;;;;;;;-143.83;100.00;62900.06;5006910;28;20108;-60
2022/06/16 01:49:08;;;;;;;4.90;4.70;;;;;;;-143.83;100.00;62900.06;5022460;28;20524;-60
2022/06/16 01:51:40;;;;;;;5.00;4.80;;;;;;;-143.83;100.00;62900.06;5033990;28;20025;-61
2022/06/16 01:54:24;;;;;;;5.07;4.88;;;;;;;-143.83;100.00;62900.06;5034824;28;20029;-60
2022/06/16 01:57:08;;;;;;;4.93;4.72;;;;;;;-143.83;100.00;62900.06;5034946;28;20031;-60
2022/06/16 01:59:47;;;;;;;4.82;4.63;;;;;;;-143.83;100.00;62900.06;5032291;28;20033;-60
2022/06/16 02:02:17;;;;;;;4.82;4.63;;;;;;;-143.83;100.00;62900.06;5042891;28;20116;-59
2022/06/16 02:04:54;;;;;;;4.90;4.70;;;;;;;-143.83;100.00;62900.06;5037920;28;20033;-59
2022/06/16 02:07:25;;;;;;;4.90;4.70;;;;;;;-143.83;100.00;62900.06;5034520;28;20048;-60
2022/06/16 02:09:56;;;;;;;5.00;4.80;;;;;;;-143.83;100.00;62900.06;5026069;28;20037;-60
2022/06/16 02:15:23;;;;;;;5.00;4.80;;;;;;;-143.83;100.00;62900.06;5030972;28;20040;-60
2022/06/16 02:17:48;;;;;;;4.88;4.68;;;;;;;-143.83;100.00;62900.06;5021581;28;20034;-60
2022/06/16 02:20:14;;;;;;;4.90;4.70;;;;;;;-143.83;100.00;62900.06;5038859;28;20030;-60
2022/06/16 02:22:39;;;;;;;5.00;4.80;;;;;;;-143.83;100.00;62900.06;5033997;28;20030;-60
2022/06/16 02:25:06;;;;;;;4.90;4.70;;;;;;;-143.83;100.00;62900.06;5034172;28;20032;-59
2022/06/16 02:27:31;;;;;;;4.95;4.75;;;;;;;-143.83;100.00;62900.06;5033235;28;20611;-59
2022/06/16 02:29:56;;;;;;;4.97;4.78;;;;;;;-143.83;100.00;62900.06;5034052;28;20029;-60
2022/06/16 02:32:59;;;;;;;4.85;4.65;;;;;;;-143.83;100.00;62900.06;5027691;28;20025;-59
2022/06/16 02:35:32;;;;;;;4.78;4.57;;;;;;;-143.83;100.00;62900.06;5024740;28;20029;-60
2022/06/16 02:38:17;;;;;;;4.90;4.70;;;;;;;-143.83;100.00;62900.06;5037946;28;20037;-60
2022/06/16 02:40:46;;;;;;;4.85;4.65;;;;;;;-143.83;100.00;62900.06;5033891;28;20203;-59
2022/06/16 02:43:56;;;;;;;5.10;4.90;;;;;;;-143.83;100.00;62900.06;5033007;28;20060;-60
2022/06/16 02:46:47;;;;;;;5.05;4.85;;;;;;;-143.83;100.00;62900.06;5008119;28;20400;-59
2022/06/16 02:49:22;;;;;;;5.00;4.80;;;;;;;-143.83;100.00;62900.06;5020463;28;20095;-61
2022/06/16 02:52:05;;;;;;;5.10;4.90;;;;;;;-143.83;100.00;62900.06;5021130;28;20451;-59
2022/06/16 02:54:45;;;;;;;4.93;4.72;;;;;;;-143.83;100.00;62900.06;5035925;28;20065;-59
2022/06/16 02:57:20;;;;;;;4.90;4.70;;;;;;;-143.83;100.00;62900.06;5033562;28;20567;-59
2022/06/16 02:59:50;;;;;;;4.82;4.63;;;;;;;-143.83;100.00;62900.06;5032952;28;20037;-59
2022/06/16 03:02:20;;;;;;;4.80;4.60;;;;;;;-143.83;100.00;62900.06;5033725;28;20061;-60
2022/06/16 03:04:52;;;;;;;4.80;4.60;;;;;;;-143.83;100.00;62900.06;5023934;28;20022;-59
2022/06/16 03:07:18;;;;;;;5.00;4.80;;;;;;;-143.83;100.00;62900.06;5026287;28;20441;-60
2022/06/16 03:09:44;;;;;;;4.80;4.60;;;;;;;-143.83;100.00;62900.06;5034484;28;20503;-59
2022/06/16 03:12:13;;;;;;;5.00;4.80;;;;;;;-143.83;100.00;62900.06;5033088;28;20037;-60
2022/06/16 03:14:38;;;;;;;4.80;4.60;;;;;;;-143.83;100.00;62900.06;5033251;28;20025;-59
2022/06/16 03:17:05;;;;;;;4.88;4.68;;;;;;;-143.83;100.00;62900.06;5032128;28;20080;-59
2022/06/16 03:19:31;;;;;;;4.90;4.70;;;;;;;-143.83;100.00;62900.06;5023090;28;20030;-59
2022/06/16 03:21:56;;;;;;;4.90;4.70;;;;;;;-143.83;100.00;62900.06;5032947;28;20583;-59
2022/06/16 03:24:23;;;;;;;4.80;4.60;;;;;;;-143.83;100.00;62900.06;5032550;28;20021;-59
2022/06/16 03:26:48;;;;;;;4.88;4.68;;;;;;;-143.83;100.00;62900.06;5030775;28;20037;-60
2022/06/16 03:29:14;;;;;;;4.90;4.70;;;;;;;-143.83;100.00;62900.06;5043711;28;20040;-60
2022/06/16 03:31:40;;;;;;;5.20;5.00;;;;;;;-143.83;100.00;62900.06;5034957;28;20017;-60
2022/06/16 03:34:06;;;;;;;5.07;4.88;;;;;;;-143.83;100.00;62900.06;5024875;28;20024;-60
2022/06/16 03:36:32;;;;;;;5.15;4.95;;;;;;;-143.83;100.00;62900.06;5036912;28;20025;-59
2022/06/16 03:38:58;;;;;;;5.07;4.88;;;;;;;-143.83;100.00;62900.06;5034023;28;20021;-59
2022/06/16 03:41:23;;;;;;;5.03;4.82;;;;;;;-143.83;100.00;62900.06;5038527;28;20485;-61
2022/06/16 03:43:49;;;;;;;5.10;4.90;;;;;;;-143.83;100.00;62900.06;5042400;28;20032;-60
2022/06/16 03:46:16;;;;;;;5.18;4.97;;;;;;;-143.83;100.00;62900.06;5015925;28;20013;-59
2022/06/16 03:48:42;;;;;;;5.00;4.80;;;;;;;-143.83;100.00;62900.06;5032486;28;20050;-60
2022/06/16 03:51:08;;;;;;;5.07;4.88;;;;;;;-143.83;100.00;62900.06;5029203;28;20465;-60
2022/06/16 03:53:35;;;;;;;5.00;4.80;;;;;;;-143.83;100.00;62900.06;5031483;28;20025;-60
2022/06/16 03:56:01;;;;;;;5.05;4.85;;;;;;;-143.83;100.00;62900.06;5032234;28;20033;-61
2022/06/16 03:58:26;;;;;;;5.00;4.80;;;;;;;-143.83;100.00;62900.06;5028484;28;20025;-60
2022/06/16 04:00:52;;;;;;;4.93;4.72;;;;;;;-143.83;100.00;62900.06;5032197;28;20025;-59
2022/06/16 04:06:02;;;;;;;5.28;5.07;;;;;;;-143.83;100.00;62900.06;5020395;28;20083;-59
2022/06/16 04:08:27;;;;;;;5.05;4.85;;;;;;;-143.83;100.00;62900.06;5031581;28;20076;-60
2022/06/16 04:10:53;;;;;;;5.10;4.90;;;;;;;-143.83;100.00;62900.06;5024997;28;20493;-59
2022/06/16 04:13:20;;;;;;;5.15;4.95;;;;;;;-143.83;100.00;62900.06;5026766;28;20017;-60
2022/06/16 04:15:45;;;;;;;5.20;5.00;;;;;;;-143.83;100.00;62900.06;5030761;28;20033;-60
2022/06/16 04:18:11;;;;;;;4.97;4.78;;;;;;;-143.83;100.00;62900.06;5040058;28;20036;-60
2022/06/16 04:20:37;;;;;;;5.00;4.80;;;;;;;-143.83;100.00;62900.06;5026070;28;20029;-59
2022/06/16 04:23:03;;;;;;;5.20;5.00;;;;;;;-143.83;100.00;62900.06;5022787;28;20754;-60
2022/06/16 04:25:33;;;;;;;5.00;4.80;;;;;;;-143.83;100.00;62900.06;5030464;28;20034;-60
2022/06/16 04:28:03;;;;;;;5.00;4.80;;;;;;;-143.83;100.00;62900.06;5027539;28;20439;-60
2022/06/16 04:30:30;;;;;;;5.13;4.93;;;;;;;-143.83;100.00;62900.06;5022451;28;20091;-59
2022/06/16 04:32:57;;;;;;;5.00;4.80;;;;;;;-143.83;100.00;62900.06;5039238;28;20025;-58
2022/06/16 04:35:23;;;;;;;5.38;5.18;;;;;;;-143.83;100.00;62900.06;5032400;28;20113;-60
2022/06/16 04:37:49;;;;;;;5.18;4.97;;;;;;;-143.83;100.00;62900.06;5033101;28;20112;-59
2022/06/16 04:40:15;;;;;;;5.28;5.07;;;;;;;-143.83;100.00;62900.06;5024568;28;20482;-60
2022/06/16 04:42:40;;;;;;;5.20;5.00;;;;;;;-143.83;100.00;62900.06;5022792;28;20038;-60
2022/06/16 04:45:07;;;;;;;5.30;5.10;;;;;;;-143.83;100.00;62900.06;5027159;28;20038;-60
2022/06/16 04:47:32;;;;;;;5.20;5.00;;;;;;;-143.83;100.00;62900.06;5020872;28;20429;-60
2022/06/16 04:49:57;;;;;;;5.30;5.10;;;;;;;-143.83;100.00;62900.06;5031629;28;20033;-60
2022/06/16 04:52:23;;;;;;;5.40;5.20;;;;;;;-143.83;100.00;62900.06;5031671;28;20051;-60
2022/06/16 04:54:49;;;;;;;5.28;5.07;;;;;;;-143.83;100.00;62900.06;5031525;28;20105;-60
2022/06/16 04:57:15;;;;;;;5.40;5.20;;;;;;;-143.83;100.00;62900.06;5031223;28;20025;-61
2022/06/16 04:59:41;;;;;;;5.55;5.35;;;;;;;-143.83;100.00;62900.06;5020774;28;20030;-60
2022/06/16 05:02:08;;;;;;;5.50;5.30;;;;;;;-143.83;100.00;62900.06;5021276;28;20057;-61
2022/06/16 05:04:35;;;;;;;5.80;5.60;;;;;;;-143.83;100.00;62900.06;5025427;28;20041;-59
2022/06/16 05:07:01;;;;;;;5.70;5.50;;;;;;;-143.83;100.00;62900.06;5017144;28;20025;-60
2022/06/16 05:09:27;;;;;;;5.97;5.78;;;;;;;-143.83;100.00;62900.06;5031188;28;20120;-60
2022/06/16 05:11:52;;;;;;;5.75;5.55;;;;;;;-143.83;100.00;62900.06;5031144;28;20025;-60
2022/06/16 05:14:17;;;;;;;5.75;5.55;;;;;;;-143.83;100.00;62900.06;5031520;28;20044;-60
2022/06/16 05:16:43;;;;;;;5.60;5.40;;;;;;;-143.83;100.00;62900.06;5029908;28;20029;-61
2022/06/16 05:19:08;;;;;;;5.93;5.72;;;;;;;-143.83;100.00;62900.06;5031148;28;20117;-60
2022/06/16 05:21:34;;;;;;;5.70;5.50;;;;;;;-143.83;100.00;62900.06;5031489;28;20029;-60
2022/06/16 05:24:00;;;;;;;5.55;5.35;;;;;;;-143.83;100.00;62900.06;5029455;28;20021;-59
2022/06/16 05:26:26;;;;;;;5.60;5.40;;;;;;;-143.83;100.00;62900.06;5031049;28;20028;-60
2022/06/16 05:28:51;;;;;;;5.50;5.30;;;;;;;-143.83;100.00;62900.06;5031290;28;20083;-59
2022/06/16 05:31:17;;;;;;;5.78;5.57;;;;;;;-143.83;100.00;62900.06;5031067;28;20029;-60
2022/06/16 05:33:42;;;;;;;5.80;5.60;;;;;;;-143.83;100.00;62900.06;5030139;28;20045;-60
2022/06/16 05:36:11;;;;;;;5.90;5.70;;;;;;;-143.83;100.00;62900.06;5026959;28;20044;-60
2022/06/16 05:38:37;;;;;;;6.00;5.80;;;;;;;-143.83;100.00;62900.06;5031159;28;20397;-60
2022/06/16 05:41:10;;;;;;;6.20;6.00;;;;;;;-143.83;100.00;62900.06;5031054;28;20048;-60
2022/06/16 05:43:36;;;;;;;6.38;6.07;;;;;;;-143.83;100.00;62900.06;5030974;28;20088;-60
2022/06/16 05:46:04;;;;;;;6.40;6.10;;;;;;;-143.83;100.00;62900.06;5020081;28;20025;-61
2022/06/16 05:48:29;;;;;;;6.35;6.05;;;;;;;-143.83;100.00;62900.06;5025834;28;20052;-62
2022/06/16 05:51:01;;;;;;;6.20;6.00;;;;;;;-143.83;100.00;62900.06;5024886;28;20030;-62
2022/06/16 05:53:26;;;;;;;6.50;6.20;;;;;;;-143.83;100.00;62900.06;5028631;28;20405;-62
2022/06/16 05:55:52;;;;;;;6.60;6.30;;;;;;;-143.83;100.00;62900.06;5029689;28;20037;-62
2022/06/16 05:58:17;;;;;;;6.10;5.90;;;;;;;-143.83;100.00;62900.06;5021514;28;20038;-62
2022/06/16 06:00:43;;;;;;;6.05;5.85;;;;;;;-143.83;100.00;62900.06;5029230;28;20025;-62
2022/06/16 06:03:08;;;;;;;6.25;6.00;;;;;;;-143.83;100.00;62900.06;5024751;28;20026;-63
2022/06/16 06:05:34;;;;;;;6.53;6.22;;;;;;;-143.83;100.00;62900.06;5029885;28;20045;-64
2022/06/16 06:21:59;;;;;;;6.45;6.15;;;;;;;-143.83;100.00;62900.06;5032831;28;20520;-63
2022/06/16 06:24:31;;;;;;;6.43;6.13;;;;;;;-143.83;100.00;62900.06;5031491;28;20386;-63
2022/06/16 06:26:59;;;;;;;6.03;5.82;;;;;;;-143.83;100.00;62900.06;5026077;28;20128;-63
2022/06/16 06:29:25;;;;;;;6.25;6.03;;;;;;;-143.83;100.00;62900.06;5032760;28;20036;-63
2022/06/16 06:31:51;;;;;;;6.43;6.13;;;;;;;-143.83;100.00;62900.06;5032484;28;20099;-63
2022/06/16 06:34:16;;;;;;;6.47;6.18;;;;;;;-143.83;100.00;62900.06;5027607;28;20025;-61
2022/06/16 06:36:42;;;;;;;5.90;5.70;;;;;;;-143.83;100.00;62900.06;5025246;28;20144;-62
2022/06/16 06:39:10;;;;;;;6.18;5.97;;;;;;;-143.83;100.00;62900.06;5036487;28;20052;-59
2022/06/16 06:41:36;;;;;;;6.25;6.03;;;;;;;-143.83;100.00;62900.06;5027596;28;20030;-60
2022/06/16 06:44:01;;;;;;;6.30;6.05;;;;;;;-143.83;100.00;62900.06;5028766;28;20141;-62
2022/06/16 06:46:27;;;;;;;6.20;5.97;;;;;;;-143.83;100.00;62900.06;5037566;28;20307;-61
2022/06/16 06:48:52;;;;;;;6.43;6.13;;;;;;;-143.83;100.00;62900.06;5032180;28;20049;-61
2022/06/16 06:51:18;;;;;;;6.13;5.93;;;;;;;-143.83;100.00;62900.06;5028908;28;20025;-63
2022/06/16 06:53:43;;;;;;;6.50;6.20;;;;;;;-143.83;100.00;62900.06;5032221;28;20124;-62
2022/06/16 06:56:09;;;;;;;6.43;6.13;;;;;;;-143.83;100.00;62900.06;5031664;28;20017;-62
2022/06/16 06:58:35;;;;;;;6.22;6.00;;;;;;;-143.83;100.00;62900.06;5030620;28;20032;-62
2022/06/16 07:01:01;;;;;;;6.53;6.22;;;;;;;-143.83;100.00;62900.06;5033164;28;20025;-61
2022/06/16 07:03:29;;;;;;;6.15;5.95;;;;;;;-143.83;100.00;62900.06;5033142;28;20017;-61
2022/06/16 07:05:55;;;;;;;6.25;5.97;;;;;;;-143.83;100.00;62900.06;5032960;28;20029;-61
2022/06/16 07:08:21;;;;;;;6.30;6.05;;;;;;;-143.83;100.00;62900.06;5033275;28;20397;-62
2022/06/16 07:10:47;;;;;;;6.45;6.15;;;;;;;-143.83;100.00;62900.06;5033046;28;20423;-60
2022/06/16 07:13:13;;;;;;;6.15;5.95;;;;;;;-143.83;100.00;62900.06;5033142;28;20021;-62
2022/06/16 07:15:39;;;;;;;6.35;6.07;;;;;;;-143.83;100.00;62900.06;5032088;28;20041;-62
2022/06/16 07:18:06;;;;;;;6.22;6.03;;;;;;;-143.83;100.00;62900.06;5033076;28;20393;-62
2022/06/16 07:20:33;;;;;;;6.40;6.10;;;;;;;-143.83;100.00;62900.06;5033266;28;20025;-62
2022/06/16 07:22:59;;;;;;;6.40;6.13;;;;;;;-143.83;100.00;62900.06;5033042;28;20104;-60
2022/06/16 07:25:24;;;;;;;6.60;6.30;;;;;;;-143.83;100.00;62900.06;5019179;28;20120;-62
2022/06/16 07:27:53;;;;;;;6.45;6.15;;;;;;;-143.83;100.00;62900.06;5033182;28;20089;-62
2022/06/16 07:30:21;;;;;;;6.53;6.22;;;;;;;-143.83;100.00;62900.06;5032804;28;20432;-61
2022/06/16 07:32:47;;;;;;;6.45;6.15;;;;;;;-143.83;100.00;62900.06;5031737;28;20435;-61
2022/06/16 07:35:16;;;;;;;6.63;6.32;;;;;;;-143.83;100.00;62900.06;5032613;28;20176;-61
2022/06/16 07:37:42;;;;;;;6.47;6.18;;;;;;;-143.83;100.00;62900.06;5032262;28;20025;-61
2022/06/16 07:40:08;;;;;;;6.55;6.25;;;;;;;-143.83;100.00;62900.06;5032622;28;20432;-62
2022/06/16 07:42:34;;;;;;;6.35;6.07;;;;;;;-143.83;100.00;62900.06;5032723;28;20056;-62
2022/06/16 07:45:01;;;;;;;6.18;5.97;;;;;;;-143.83;100.00;62900.06;5026956;28;20033;-62
2022/06/16 07:47:27;;;;;;;6.43;6.13;;;;;;;-143.83;100.00;62900.06;5031394;28;20040;-62
2022/06/16 07:49:53;;;;;;;6.10;5.90;;;;;;;-143.83;100.00;62900.06;5024104;28;20453;-60
2022/06/16 07:52:19;;;;;;;6.32;6.07;;;;;;;-143.83;100.00;62900.06;5022387;28;20041;-62
2022/06/16 07:54:44;;;;;;;6.32;6.10;;;;;;;-143.83;100.00;62900.06;5028407;28;20021;-61
2022/06/16 07:57:11;;;;;;;6.10;5.90;;;;;;;-143.83;100.00;62900.06;5032318;28;20472;-62
2022/06/16 07:59:36;;;;;;;6.10;5.90;;;;;;;-143.83;100.00;62900.06;5030823;28;20030;-61
2022/06/16 08:02:03;;;;;;;5.72;5.53;;;;;;;-143.83;100.00;62900.06;5032077;28;20075;-61
2022/06/16 08:04:29;;;;;;;5.80;5.60;;;;;;;-143.83;100.00;62900.06;5031598;28;20033;-61
2022/06/16 08:07:00;;;;;;;5.60;5.40;;;;;;;-143.83;100.00;62900.06;5031604;28;20540;-61
2022/06/16 08:09:27;;;;;;;5.72;5.53;;;;;;;-143.83;100.00;62900.06;5031977;28;20040;-62
2022/06/16 08:12:07;;;;;;;6.00;5.80;;;;;;;-143.83;100.00;62900.06;5032294;28;20029;-63
2022/06/16 08:14:37;;;;;;;5.82;5.63;;;;;;;-143.83;100.00;62900.06;5031978;28;20025;-62
2022/06/16 08:17:25;;;;;;;5.90;5.70;;;;;;;-143.83;100.00;62900.06;5031862;28;20060;-61
2022/06/16 08:19:51;;;;;;;6.13;5.93;;;;;;;-143.83;100.00;62900.06;5031679;28;20029;-61
2022/06/16 08:22:18;;;;;;;6.03;5.82;;;;;;;-143.83;100.00;62900.06;5031960;28;20057;-61
2022/06/16 08:24:43;;;;;;;5.70;5.50;;;;;;;-143.83;100.00;62900.06;5030653;28;20029;-61
2022/06/16 08:27:10;;;;;;;5.80;5.60;;;;;;;-143.83;100.00;62900.06;5031851;28;20017;-61
2022/06/16 08:29:37;;;;;;;5.85;5.65;;;;;;;-143.83;100.00;62900.06;5031668;28;20492;-61
2022/06/16 08:32:03;;;;;;;5.68;5.47;;;;;;;-143.83;100.00;62900.06;5031720;28;20029;-61
2022/06/16 08:34:28;;;;;;;5.50;5.30;;;;;;;-143.83;100.00;62900.06;5031789;28;20045;-61
2022/06/16 08:36:54;;;;;;;5.88;5.68;;;;;;;-143.83;100.00;62900.06;5031503;28;20436;-61
2022/06/16 08:39:19;;;;;;;5.70;5.50;;;;;;;-143.83;100.00;62900.06;5031807;28;20123;-61
2022/06/16 08:42:30;;;;;;;5.75;5.55;;;;;;;-143.83;100.00;62900.06;5030667;28;20026;-61
2022/06/16 08:45:21;;;;;;;5.50;5.30;;;;;;;-143.83;100.00;62900.06;5003826;28;20452;-62
2022/06/16 08:47:49;;;;;;;5.70;5.50;;;;;;;-143.83;100.00;62900.06;5020522;28;20049;-61
2022/06/16 08:50:23;;;;;;;5.70;5.50;;;;;;;-143.83;100.00;62900.06;5031276;28;20029;-60
2022/06/16 08:53:30;;;;;;;5.70;5.50;;;;;;;-143.83;100.00;62900.06;5031051;28;20041;-61
2022/06/16 08:56:03;;;;;;;5.57;5.38;;;;;;;-143.83;100.00;62900.06;5030692;28;20026;-62
2022/06/16 08:58:39;;;;;;;5.70;5.50;;;;;;;-143.83;100.00;62900.06;5030300;28;20492;-62
2022/06/16 09:01:44;;;;;;;5.68;5.47;;;;;;;-143.83;100.00;62900.06;5031449;28;20112;-61
2022/06/16 09:04:21;;;;;;;5.40;5.20;;;;;;;-143.83;100.00;62900.06;4998005;28;20072;-60
2022/06/16 09:07:04;;;;;;;5.60;5.40;;;;;;;-143.83;100.00;62900.06;5031163;28;20030;-60
2022/06/16 09:12:38;;;;;;;5.90;5.70;;;;;;;-143.83;100.00;62900.06;5031302;28;20507;-61
2022/06/16 09:15:41;;;;;;;5.72;5.53;;;;;;;-143.83;100.00;62900.06;5030448;28;20374;-60
2022/06/16 09:18:30;;;;;;;5.78;5.57;;;;;;;-143.83;100.00;62900.06;5024205;28;20060;-61
2022/06/16 09:21:13;;;;;;;5.75;5.55;;;;;;;-143.83;100.00;62900.06;5023086;28;20088;-60
2022/06/16 09:23:55;;;;;;;5.55;5.35;;;;;;;-143.83;100.00;62900.06;5031196;28;20077;-60
2022/06/16 09:26:28;;;;;;;5.60;5.40;;;;;;;-143.83;100.00;62900.06;5031053;28;20021;-61
2022/06/16 09:29:00;;;;;;;5.65;5.45;;;;;;;-143.83;100.00;62900.06;5030963;28;20040;-61
2022/06/16 09:31:56;;;;;;;5.65;5.45;;;;;;;-143.83;100.00;62900.06;5032216;28;20061;-60
2022/06/16 09:34:33;;;;;;;5.65;5.45;;;;;;;-143.83;100.00;62900.06;5017475;28;20049;-61
2022/06/16 09:37:05;;;;;;;5.70;5.50;;;;;;;-143.83;100.00;62900.06;5034875;28;20116;-61
2022/06/16 09:39:38;;;;;;;5.60;5.40;;;;;;;-143.83;100.00;62900.06;5035102;28;20021;-60
2022/06/16 09:42:44;;;;;;;5.80;5.60;;;;;;;-143.83;100.00;62900.06;5031294;28;20123;-61
2022/06/16 09:45:25;;;;;;;5.45;5.25;;;;;;;-143.83;100.00;62900.06;4992546;28;20026;-60
2022/06/16 09:48:08;;;;;;;5.60;5.40;;;;;;;-143.83;100.00;62900.06;5019590;28;20455;-61
2022/06/16 09:50:55;;;;;;;5.60;5.40;;;;;;;-143.83;100.00;62900.06;5034414;28;20035;-61
2022/06/16 09:53:34;;;;;;;5.35;5.15;;;;;;;-143.83;100.00;62900.06;5034406;28;20033;-61
2022/06/16 09:56:08;;;;;;;5.80;5.60;;;;;;;-143.83;100.00;62900.06;5034324;28;20021;-60
2022/06/16 09:58:38;;;;;;;5.70;5.50;;;;;;;-143.83;100.00;62900.06;5034548;28;20036;-60
2022/06/16 10:01:09;;;;;;;5.55;5.35;;;;;;;-143.83;100.00;62900.06;5034704;28;20440;-61
2022/06/16 10:03:46;;;;;;;5.65;5.45;;;;;;;-143.83;100.00;62900.06;5034421;28;20061;-61
2022/06/16 10:06:34;;;;;;;5.78;5.57;;;;;;;-143.83;100.00;62900.06;5033543;28;20064;-62
2022/06/16 10:09:11;;;;;;;5.55;5.35;;;;;;;-143.83;100.00;62900.06;5034452;28;20512;-61
2022/06/16 10:11:49;;;;;;;5.60;5.40;;;;;;;-143.83;100.00;62900.06;5034165;28;20038;-61
2022/06/16 10:14:51;;;;;;;5.50;5.30;;;;;;;-143.83;100.00;62900.06;5034371;28;20362;-62
2022/06/16 10:17:21;;;;;;;5.60;5.40;;;;;;;-143.83;100.00;62900.06;5029991;28;20435;-61
2022/06/16 10:19:47;;;;;;;5.50;5.30;;;;;;;-143.83;100.00;62900.06;5034044;28;20017;-62
2022/06/16 10:22:16;;;;;;;5.68;5.47;;;;;;;-143.83;100.00;62900.06;5033114;28;20025;-62
2022/06/16 10:24:55;;;;;;;5.50;5.30;;;;;;;-143.83;100.00;62900.06;5033984;28;20029;-61
2022/06/16 10:27:25;;;;;;;5.70;5.50;;;;;;;-143.83;100.00;62900.06;5033779;28;20104;-61
2022/06/16 10:29:59;;;;;;;5.60;5.40;;;;;;;-143.83;100.00;62900.06;5034126;28;20389;-62
2022/06/16 10:32:59;;;;;;;5.72;5.53;;;;;;;-143.83;100.00;62900.06;5033906;28;20091;-61
2022/06/16 10:35:24;;;;;;;5.60;5.40;;;;;;;-143.83;100.00;62900.06;5016772;28;20029;-61
2022/06/16 10:37:53;;;;;;;5.70;5.50;;;;;;;-143.83;100.00;62900.06;5024040;28;20036;-62
2022/06/16 10:40:30;;;;;;;5.60;5.40;;;;;;;-143.83;100.00;62900.06;5032674;28;20137;-61
2022/06/16 10:43:03;;;;;;;5.60;5.40;;;;;;;-143.83;100.00;62900.06;5032933;28;20060;-61
2022/06/16 10:45:34;;;;;;;5.50;5.30;;;;;;;-143.83;100.00;62900.06;5033608;28;20064;-61
2022/06/16 10:48:08;;;;;;;5.60;5.40;;;;;;;-143.83;100.00;62900.06;5033413;28;20448;-61
2022/06/16 10:50:41;;;;;;;5.55;5.35;;;;;;;-143.83;100.00;62900.06;5033570;28;20037;-60
2022/06/16 10:53:26;;;;;;;5.78;5.57;;;;;;;-143.83;100.00;62900.06;5033483;28;20104;-61
2022/06/16 10:56:01;;;;;;;5.60;5.40;;;;;;;-143.83;100.00;62900.06;5031805;28;20037;-61
2022/06/16 10:58:30;;;;;;;5.60;5.40;;;;;;;-143.83;100.00;62900.06;5033752;28;20108;-61
2022/06/16 11:01:16;;;;;;;5.60;5.40;;;;;;;-143.83;100.00;62900.06;5033293;28;20049;-60
2022/06/16 11:03:45;;;;;;;5.55;5.35;;;;;;;-143.83;100.00;62900.06;5033386;28;20117;-61
2022/06/16 11:06:17;;;;;;;5.40;5.20;;;;;;;-143.83;100.00;62900.06;5033258;28;20025;-61
2022/06/16 11:08:50;;;;;;;5.40;5.20;;;;;;;-143.83;100.00;62900.06;5033207;28;20108;-61
2022/06/16 11:11:40;;;;;;;5.60;5.40;;;;;;;-143.83;100.00;62900.06;5032859;28;20493;-61
2022/06/16 11:14:12;;;;;;;5.65;5.45;;;;;;;-143.83;100.00;62900.06;5031793;28;20037;-61
2022/06/16 11:16:46;;;;;;;5.60;5.40;;;;;;;-143.83;100.00;62900.06;5027854;28;20109;-61
2022/06/16 11:19:28;;;;;;;5.80;5.60;;;;;;;-143.83;100.00;62900.06;5032919;28;20029;-60
2022/06/16 11:21:55;;;;;;;5.05;4.85;;;;;;;-143.83;100.00;62900.06;5024788;28;20044;-60
2022/06/16 11:24:31;;;;;;;5.30;5.10;;;;;;;-143.83;100.00;62900.06;5032979;28;20048;-61
2022/06/16 11:27:12;;;;;;;5.30;5.10;;;;;;;-143.83;100.00;62900.06;5032845;28;20087;-61
2022/06/16 11:29:39;;;;;;;5.20;5.00;;;;;;;-143.83;100.00;62900.06;5031616;28;20030;-61
2022/06/16 11:32:13;;;;;;;5.38;5.18;;;;;;;-143.83;100.00;62900.06;5032567;28;20457;-60
2022/06/16 11:34:41;;;;;;;5.60;5.40;;;;;;;-143.83;100.00;62900.06;5029013;28;20083;-62
2022/06/16 11:37:35;;;;;;;5.50;5.30;;;;;;;-143.83;100.00;62900.06;5026865;28;20433;-60
2022/06/16 11:40:14;;;;;;;5.63;5.43;;;;;;;-143.83;100.00;62900.06;5032898;28;20025;-61
2022/06/16 11:43:01;;;;;;;5.50;5.30;;;;;;;-143.83;100.00;62900.06;5032308;28;20558;-60
2022/06/16 11:45:36;;;;;;;5.50;5.30;;;;;;;-143.83;100.00;62900.06;5022435;28;20116;-61
2022/06/16 11:48:26;;;;;;;5.47;5.28;;;;;;;-143.83;100.00;62900.06;5031283;28;20038;-61
2022/06/16 11:50:54;;;;;;;5.57;5.38;;;;;;;-143.83;100.00;62900.06;5032848;28;20449;-61
2022/06/16 11:53:30;;;;;;;5.60;5.40;;;;;;;-143.83;100.00;62900.06;5031778;28;20033;-61